createdAt,value
2018-12-01T00:00:43.115Z,0.36
2018-12-01T00:03:12.678Z,0.37
2018-12-01T00:05:43.693Z,0.33
2018-12-01T00:08:13.233Z,0.28
2018-12-01T00:10:42.736Z,0.22
2018-12-01T00:13:12.261Z,0.25
2018-12-01T00:15:41.767Z,0.25
2018-12-01T00:18:11.331Z,0.25
2018-12-01T00:20:40.829Z,0.21
2018-12-01T00:23:10.370Z,0.18
2018-12-01T00:25:39.906Z,0.16
2018-12-01T00:28:09.417Z,0.17
2018-12-01T00:30:38.909Z,0.14
2018-12-01T00:33:08.482Z,0.14
2018-12-01T00:35:38.006Z,0.06
2018-12-01T00:38:07.840Z,0.05
2018-12-01T00:40:37.373Z,0.06
2018-12-01T00:43:07.113Z,0.06
2018-12-01T00:45:36.628Z,0.07
2018-12-01T00:48:06.164Z,0.06
2018-12-01T00:50:35.708Z,0.05
2018-12-01T00:53:05.524Z,0.05
2018-12-01T00:55:35.018Z,0.05
2018-12-01T00:58:04.584Z,-0.02
2018-12-01T01:00:34.109Z,-0.02
2018-12-01T01:03:03.656Z,-0.01
2018-12-01T01:05:33.197Z,-0.01
2018-12-01T01:08:02.704Z,-0.02
2018-12-01T01:10:34.624Z,-0.04
2018-12-01T01:13:02.997Z,-0.03
2018-12-01T01:15:32.554Z,-0.06
2018-12-01T01:18:02.069Z,-0.10
2018-12-01T01:20:31.638Z,-0.12
2018-12-01T01:23:01.132Z,-0.14
2018-12-01T01:25:30.677Z,-0.13
2018-12-01T01:28:00.262Z,-0.15
2018-12-01T01:30:29.905Z,-0.16
2018-12-01T01:33:10.217Z,-0.17
2018-12-01T01:35:39.716Z,-0.18
2018-12-01T01:38:09.257Z,-0.19
2018-12-01T01:40:38.796Z,-0.17
2018-12-01T01:43:08.365Z,-0.17
2018-12-01T01:45:37.916Z,-0.18
2018-12-01T01:48:07.509Z,-0.15
2018-12-01T01:50:37.065Z,-0.19
2018-12-01T01:53:06.593Z,-0.19
2018-12-01T01:55:36.146Z,-0.22
2018-12-01T01:58:05.816Z,-0.22
2018-12-01T02:00:35.410Z,-0.21
2018-12-01T02:03:04.966Z,-0.22
2018-12-01T02:05:34.477Z,-0.21
2018-12-01T02:08:04.018Z,-0.18
2018-12-01T02:10:33.558Z,-0.17
2018-12-01T02:13:03.077Z,-0.15
2018-12-01T02:15:32.630Z,-0.10
2018-12-01T02:18:02.209Z,-0.05
2018-12-01T02:20:31.874Z,-0.01
2018-12-01T02:23:01.372Z,0.05
2018-12-01T02:25:30.916Z,0.08
2018-12-01T02:28:00.428Z,0.11
2018-12-01T02:30:29.980Z,0.12
2018-12-01T02:32:59.486Z,0.13
2018-12-01T02:35:29.790Z,0.15
2018-12-01T02:37:59.290Z,0.17
2018-12-01T02:40:28.899Z,0.18
2018-12-01T02:42:58.396Z,0.23
2018-12-01T02:45:38.721Z,0.25
2018-12-01T02:48:08.238Z,0.27
2018-12-01T02:50:37.789Z,0.29
2018-12-01T02:53:07.293Z,0.32
2018-12-01T02:55:36.816Z,0.36
2018-12-01T02:58:06.625Z,0.37
2018-12-01T03:00:36.144Z,0.38
2018-12-01T03:03:05.930Z,0.39
2018-12-01T03:05:35.441Z,0.39
2018-12-01T03:08:05.025Z,0.35
2018-12-01T03:10:34.587Z,0.36
2018-12-01T03:13:04.123Z,0.33
2018-12-01T03:15:33.713Z,0.36
2018-12-01T03:18:03.251Z,-0.66
2018-12-01T03:20:32.800Z,0.29
2018-12-01T03:23:02.381Z,0.28
2018-12-01T03:25:31.920Z,0.28
2018-12-01T03:28:01.461Z,0.29
2018-12-01T03:30:31.009Z,0.29
2018-12-01T03:33:00.502Z,0.25
2018-12-01T03:35:30.032Z,0.25
2018-12-01T03:37:59.555Z,0.25
2018-12-01T03:40:33.161Z,0.26
2018-12-01T03:43:02.706Z,0.23
2018-12-01T03:45:32.180Z,0.22
2018-12-01T03:48:01.702Z,0.21
2018-12-01T03:50:31.295Z,0.23
2018-12-01T03:53:00.781Z,0.24
2018-12-01T03:55:34.229Z,0.20
2018-12-01T03:58:04.192Z,0.17
2018-12-01T04:00:35.352Z,0.17
2018-12-01T04:03:06.551Z,0.16
2018-12-01T04:05:36.100Z,0.18
2018-12-01T04:08:05.767Z,0.15
2018-12-01T04:10:35.300Z,0.17
2018-12-01T04:13:05.036Z,0.19
2018-12-01T04:15:34.589Z,0.22
2018-12-01T04:18:04.160Z,0.23
2018-12-01T04:20:33.710Z,0.25
2018-12-01T04:23:03.205Z,0.28
2018-12-01T04:25:32.760Z,0.28
2018-12-01T04:28:02.304Z,0.29
2018-12-01T04:30:31.813Z,-0.42
2018-12-01T04:33:01.370Z,0.29
2018-12-01T04:35:30.927Z,0.29
2018-12-01T04:38:00.504Z,0.27
2018-12-01T04:40:30.025Z,0.26
2018-12-01T04:42:59.556Z,0.26
2018-12-01T04:45:29.068Z,0.25
2018-12-01T04:47:58.633Z,0.24
2018-12-01T04:50:28.109Z,0.22
2018-12-01T04:52:57.637Z,0.23
2018-12-01T04:55:27.128Z,0.23
2018-12-01T04:57:56.653Z,0.23
2018-12-01T05:00:26.179Z,0.24
2018-12-01T05:02:55.660Z,0.25
2018-12-01T05:05:25.209Z,0.25
2018-12-01T05:07:54.732Z,0.27
2018-12-01T05:10:24.339Z,0.28
2018-12-01T05:12:53.885Z,0.28
2018-12-01T05:15:23.393Z,0.26
2018-12-01T05:17:52.923Z,0.25
2018-12-01T05:20:24.093Z,0.24
2018-12-01T05:22:54.169Z,0.22
2018-12-01T05:25:23.651Z,0.20
2018-12-01T05:27:53.174Z,0.18
2018-12-01T05:30:22.666Z,0.14
2018-12-01T05:32:52.204Z,0.12
2018-12-01T05:35:22.571Z,0.11
2018-12-01T05:37:52.131Z,0.08
2018-12-01T05:40:21.959Z,0.05
2018-12-01T05:42:51.496Z,0.02
2018-12-01T05:45:21.971Z,0.01
2018-12-01T05:47:52.052Z,-0.01
2018-12-01T05:50:22.437Z,-0.02
2018-12-01T05:52:53.725Z,-0.01
2018-12-01T05:55:23.249Z,0.04
2018-12-01T05:57:53.270Z,0.07
2018-12-01T06:00:22.903Z,0.09
2018-12-01T06:02:52.432Z,0.14
2018-12-01T06:05:21.912Z,0.18
2018-12-01T06:07:51.473Z,0.23
2018-12-01T06:10:24.080Z,0.24
2018-12-01T06:12:54.193Z,0.22
2018-12-01T06:15:23.762Z,0.23
2018-12-01T06:17:53.334Z,0.24
2018-12-01T06:20:23.724Z,0.27
2018-12-01T06:22:53.285Z,0.35
2018-12-01T06:25:24.455Z,0.26
2018-12-01T06:27:53.982Z,0.31
2018-12-01T06:30:23.490Z,0.40
2018-12-01T06:32:53.313Z,0.44
2018-12-01T06:35:22.820Z,0.50
2018-12-01T06:37:52.302Z,0.56
2018-12-01T06:40:22.179Z,0.65
2018-12-01T06:42:51.745Z,0.71
2018-12-01T06:45:21.285Z,0.73
2018-12-01T06:47:50.804Z,0.77
2018-12-01T06:50:21.657Z,0.81
2018-12-01T06:52:51.964Z,0.85
2018-12-01T06:55:22.046Z,0.92
2018-12-01T06:57:51.580Z,0.94
2018-12-01T07:00:23.302Z,1.01
2018-12-01T07:02:53.576Z,1.05
2018-12-01T07:05:23.109Z,1.08
2018-12-01T07:07:52.602Z,1.11
2018-12-01T07:10:22.898Z,1.08
2018-12-01T07:13:01.393Z,1.09
2018-12-01T07:15:34.237Z,1.12
2018-12-01T07:18:13.474Z,1.12
2018-12-01T07:20:43.073Z,1.13
2018-12-01T07:23:12.588Z,1.15
2018-12-01T07:25:42.103Z,1.18
2018-12-01T07:28:11.721Z,1.20
2018-12-01T07:30:41.355Z,1.26
2018-12-01T07:33:10.836Z,1.32
2018-12-01T07:35:40.404Z,1.29
2018-12-01T07:38:09.924Z,1.31
2018-12-01T07:40:39.462Z,1.18
2018-12-01T07:43:08.955Z,1.17
2018-12-01T07:45:38.513Z,1.23
2018-12-01T07:48:08.073Z,1.26
2018-12-01T07:50:37.632Z,1.28
2018-12-01T07:53:07.504Z,1.26
2018-12-01T07:55:37.033Z,1.35
2018-12-01T07:58:06.552Z,1.40
2018-12-01T08:00:36.100Z,1.41
2018-12-01T08:03:05.732Z,1.33
2018-12-01T08:05:35.269Z,1.39
2018-12-01T08:08:04.813Z,1.49
2018-12-01T08:10:34.338Z,1.54
2018-12-01T08:13:03.919Z,1.59
2018-12-01T08:15:33.405Z,1.65
2018-12-01T08:18:02.933Z,1.58
2018-12-01T08:20:32.484Z,1.59
2018-12-01T08:23:02.080Z,1.71
2018-12-01T08:25:31.564Z,1.78
2018-12-01T08:28:01.119Z,1.83
2018-12-01T08:30:32.093Z,1.90
2018-12-01T08:33:01.605Z,1.93
2018-12-01T08:35:31.361Z,1.97
2018-12-01T08:38:00.854Z,1.91
2018-12-01T08:40:31.346Z,1.97
2018-12-01T08:43:00.836Z,2.02
2018-12-01T08:45:30.369Z,2.12
2018-12-01T08:47:59.850Z,2.24
2018-12-01T08:50:29.401Z,2.32
2018-12-01T08:52:58.918Z,2.42
2018-12-01T08:55:28.457Z,2.54
2018-12-01T08:57:58.030Z,2.61
2018-12-01T09:00:33.228Z,2.64
2018-12-01T09:03:08.592Z,2.67
2018-12-01T09:05:38.149Z,2.68
2018-12-01T09:08:07.670Z,2.75
2018-12-01T09:10:37.253Z,2.79
2018-12-01T09:13:06.804Z,2.83
2018-12-01T09:15:37.368Z,2.78
2018-12-01T09:18:07.050Z,2.75
2018-12-01T09:20:36.540Z,2.78
2018-12-01T09:23:06.370Z,2.80
2018-12-01T09:25:35.856Z,2.83
2018-12-01T09:28:05.725Z,2.89
2018-12-01T09:30:36.232Z,2.90
2018-12-01T09:33:06.143Z,2.92
2018-12-01T09:35:35.796Z,2.91
2018-12-01T09:38:05.375Z,3.00
2018-12-01T09:40:35.516Z,3.00
2018-12-01T09:43:05.212Z,2.96
2018-12-01T09:45:34.744Z,2.94
2018-12-01T09:48:04.267Z,2.93
2018-12-01T09:50:33.816Z,2.87
2018-12-01T09:53:03.326Z,2.97
2018-12-01T09:55:33.117Z,3.04
2018-12-01T09:58:02.651Z,3.12
2018-12-01T10:00:33.049Z,3.18
2018-12-01T10:03:04.822Z,3.07
2018-12-01T10:05:34.660Z,3.09
2018-12-01T10:08:04.233Z,3.16
2018-12-01T10:10:33.794Z,3.25
2018-12-01T10:13:03.340Z,3.36
2018-12-01T10:15:35.236Z,3.47
2018-12-01T10:18:05.314Z,3.56
2018-12-01T10:20:35.513Z,3.52
2018-12-01T10:23:09.973Z,3.50
2018-12-01T10:25:39.575Z,3.59
2018-12-01T10:28:10.371Z,3.53
2018-12-01T10:30:39.881Z,3.54
2018-12-01T10:33:09.440Z,3.57
2018-12-01T10:35:38.989Z,3.61
2018-12-01T10:38:11.036Z,3.65
2018-12-01T10:40:40.562Z,3.65
2018-12-01T10:43:10.201Z,3.71
2018-12-01T10:45:39.741Z,3.73
2018-12-01T10:48:10.061Z,3.79
2018-12-01T10:50:39.809Z,3.82
2018-12-01T10:53:09.374Z,3.88
2018-12-01T10:55:38.952Z,3.91
2018-12-01T10:58:11.609Z,3.93
2018-12-01T11:00:47.135Z,3.98
2018-12-01T11:03:21.651Z,4.00
2018-12-01T11:05:51.384Z,4.05
2018-12-01T11:08:21.041Z,4.04
2018-12-01T11:10:55.261Z,4.04
2018-12-01T11:13:20.136Z,4.03
2018-12-01T11:15:49.705Z,4.04
2018-12-01T11:18:19.278Z,3.97
2018-12-01T11:20:48.874Z,3.91
2018-12-01T11:23:18.618Z,3.82
2018-12-01T11:25:48.183Z,3.84
2018-12-01T11:28:17.756Z,3.70
2018-12-01T11:30:47.293Z,3.72
2018-12-01T11:33:16.852Z,3.81
2018-12-01T11:35:46.470Z,3.85
2018-12-01T11:38:16.041Z,3.94
2018-12-01T11:40:45.737Z,3.95
2018-12-01T11:43:15.566Z,3.97
2018-12-01T11:45:45.158Z,4.03
2018-12-01T11:48:14.712Z,4.06
2018-12-01T11:50:44.292Z,4.08
2018-12-01T11:53:13.817Z,4.09
2018-12-01T11:55:43.380Z,4.11
2018-12-01T11:58:12.930Z,4.13
2018-12-01T12:00:42.433Z,4.12
2018-12-01T12:03:12.026Z,4.12
2018-12-01T12:05:41.605Z,4.13
2018-12-01T12:08:26.316Z,4.14
2018-12-01T12:10:55.980Z,4.15
2018-12-01T12:13:27.258Z,4.15
2018-12-01T12:15:57.040Z,4.19
2018-12-01T12:18:26.644Z,4.14
2018-12-01T12:20:56.160Z,4.16
2018-12-01T12:23:25.709Z,4.16
2018-12-01T12:25:55.320Z,4.14
2018-12-01T12:28:24.873Z,4.13
2018-12-01T12:30:54.506Z,4.16
2018-12-01T12:33:24.172Z,4.11
2018-12-01T12:35:53.746Z,4.15
2018-12-01T12:38:23.309Z,4.19
2018-12-01T12:40:52.861Z,4.24
2018-12-01T12:43:22.459Z,4.27
2018-12-01T12:45:51.959Z,4.35
2018-12-01T12:48:21.482Z,4.36
2018-12-01T12:50:53.271Z,4.43
2018-12-01T12:53:20.552Z,4.36
2018-12-01T12:55:50.130Z,4.43
2018-12-01T12:58:19.693Z,4.48
2018-12-01T13:00:49.199Z,4.49
2018-12-01T13:03:18.742Z,4.53
2018-12-01T13:05:48.613Z,4.59
2018-12-01T13:08:19.082Z,4.64
2018-12-01T13:10:48.707Z,4.67
2018-12-01T13:13:18.277Z,4.71
2018-12-01T13:15:47.786Z,4.75
2018-12-01T13:18:17.333Z,4.78
2018-12-01T13:20:47.677Z,4.79
2018-12-01T13:23:17.216Z,4.79
2018-12-01T13:25:46.738Z,4.81
2018-12-01T13:28:19.788Z,4.77
2018-12-01T13:30:52.543Z,4.78
2018-12-01T13:33:22.166Z,4.76
2018-12-01T13:35:51.707Z,4.72
2018-12-01T13:38:21.308Z,4.69
2018-12-01T13:40:50.877Z,4.63
2018-12-01T13:43:20.433Z,4.60
2018-12-01T13:45:49.977Z,4.54
2018-12-01T13:48:19.619Z,4.53
2018-12-01T13:50:49.178Z,4.48
2018-12-01T13:53:18.850Z,4.45
2018-12-01T13:55:48.356Z,4.43
2018-12-01T13:58:17.904Z,4.39
2018-12-01T14:00:47.446Z,4.37
2018-12-01T14:03:17.001Z,4.33
2018-12-01T14:05:46.569Z,4.29
2018-12-01T14:08:16.094Z,4.23
2018-12-01T14:10:49.157Z,4.19
2018-12-01T14:13:18.672Z,4.16
2018-12-01T14:15:48.240Z,4.13
2018-12-01T14:18:17.800Z,4.08
2018-12-01T14:20:47.381Z,4.05
2018-12-01T14:23:16.962Z,4.00
2018-12-01T14:25:46.485Z,3.93
2018-12-01T14:28:16.032Z,3.92
2018-12-01T14:30:45.522Z,3.86
2018-12-01T14:33:16.343Z,3.81
2018-12-01T14:35:44.633Z,3.77
2018-12-01T14:38:15.367Z,3.73
2018-12-01T14:40:46.939Z,3.68
2018-12-01T14:43:16.558Z,3.64
2018-12-01T14:45:47.391Z,3.60
2018-12-01T14:48:16.897Z,3.56
2018-12-01T14:50:48.690Z,3.54
2018-12-01T14:53:16.964Z,3.51
2018-12-01T14:55:46.534Z,3.49
2018-12-01T14:58:16.068Z,3.48
2018-12-01T15:00:45.577Z,3.45
2018-12-01T15:03:15.141Z,3.42
2018-12-01T15:05:44.641Z,3.41
2018-12-01T15:08:14.229Z,3.40
2018-12-01T15:10:43.717Z,3.39
2018-12-01T15:13:13.284Z,3.40
2018-12-01T15:15:42.819Z,3.40
2018-12-01T15:18:12.373Z,3.38
2018-12-01T15:20:41.868Z,3.37
2018-12-01T15:23:11.431Z,3.35
2018-12-01T15:25:40.948Z,3.30
2018-12-01T15:28:10.532Z,3.32
2018-12-01T15:30:40.074Z,3.30
2018-12-01T15:33:12.503Z,3.29
2018-12-01T15:35:42.947Z,3.27
2018-12-01T15:38:12.594Z,3.24
2018-12-01T15:40:44.527Z,3.23
2018-12-01T15:43:14.081Z,3.22
2018-12-01T15:45:43.656Z,3.20
2018-12-01T15:48:13.348Z,3.16
2018-12-01T15:50:42.920Z,3.13
2018-12-01T15:53:13.547Z,3.10
2018-12-01T15:55:43.360Z,3.08
2018-12-01T15:58:12.990Z,3.03
2018-12-01T16:00:43.242Z,2.97
2018-12-01T16:03:12.789Z,2.94
2018-12-01T16:05:42.439Z,2.88
2018-12-01T16:08:12.321Z,2.89
2018-12-01T16:10:41.897Z,2.80
2018-12-01T16:13:14.732Z,2.79
2018-12-01T16:15:46.395Z,2.76
2018-12-01T16:18:16.002Z,2.75
2018-12-01T16:20:45.536Z,2.72
2018-12-01T16:23:15.127Z,2.68
2018-12-01T16:25:44.655Z,2.64
2018-12-01T16:28:14.189Z,2.61
2018-12-01T16:30:44.972Z,2.57
2018-12-01T16:33:18.928Z,2.55
2018-12-01T16:35:48.503Z,2.51
2018-12-01T16:38:21.530Z,2.49
2018-12-01T16:40:54.890Z,2.40
2018-12-01T16:43:24.689Z,2.44
2018-12-01T16:45:54.445Z,2.41
2018-12-01T16:48:23.936Z,2.40
2018-12-01T16:50:53.556Z,2.39
2018-12-01T16:53:23.532Z,2.37
2018-12-01T16:55:53.046Z,2.36
2018-12-01T16:58:22.621Z,2.36
2018-12-01T17:00:52.153Z,2.31
2018-12-01T17:03:21.729Z,2.31
2018-12-01T17:05:53.714Z,2.30
2018-12-01T17:08:23.282Z,2.27
2018-12-01T17:10:52.887Z,2.23
2018-12-01T17:13:22.453Z,2.20
2018-12-01T17:15:52.030Z,2.19
2018-12-01T17:18:21.625Z,2.17
2018-12-01T17:20:51.136Z,2.15
2018-12-01T17:23:20.713Z,2.14
2018-12-01T17:25:50.296Z,2.12
2018-12-01T17:28:20.566Z,2.09
2018-12-01T17:30:50.400Z,2.08
2018-12-01T17:33:20.098Z,2.02
2018-12-01T17:35:49.589Z,2.06
2018-12-01T17:38:20.392Z,2.03
2018-12-01T17:41:00.722Z,2.05
2018-12-01T17:43:36.063Z,2.03
2018-12-01T17:46:05.897Z,2.02
2018-12-01T17:48:35.478Z,2.02
2018-12-01T17:51:05.137Z,2.00
2018-12-01T17:53:34.658Z,1.98
2018-12-01T17:56:04.294Z,1.97
2018-12-01T17:58:33.881Z,1.94
2018-12-01T18:01:03.429Z,1.93
2018-12-01T18:03:32.923Z,1.93
2018-12-01T18:06:02.629Z,1.92
2018-12-01T18:08:32.192Z,1.92
2018-12-01T18:11:01.689Z,1.91
2018-12-01T18:13:31.168Z,1.91
2018-12-01T18:16:00.721Z,1.90
2018-12-01T18:18:30.213Z,1.90
2018-12-01T18:20:59.764Z,1.90
2018-12-01T18:23:29.260Z,0.99
2018-12-01T18:25:58.847Z,1.89
2018-12-01T18:28:31.313Z,1.89
2018-12-01T18:31:00.854Z,1.90
2018-12-01T18:33:34.355Z,1.83
2018-12-01T18:36:03.885Z,1.83
2018-12-01T18:38:33.432Z,1.88
2018-12-01T18:41:02.930Z,1.87
2018-12-01T18:43:32.486Z,1.86
2018-12-01T18:46:03.368Z,1.88
2018-12-01T18:48:32.909Z,1.88
2018-12-01T18:51:02.392Z,1.86
2018-12-01T18:53:31.924Z,1.87
2018-12-01T18:56:01.427Z,1.87
2018-12-01T18:58:30.973Z,1.86
2018-12-01T19:01:00.576Z,1.82
2018-12-01T19:03:32.653Z,1.84
2018-12-01T19:06:02.150Z,1.10
2018-12-01T19:08:31.672Z,1.83
2018-12-01T19:11:01.219Z,1.83
2018-12-01T19:13:30.701Z,1.78
2018-12-01T19:16:00.247Z,1.81
2018-12-01T19:18:29.781Z,1.80
2018-12-01T19:20:59.324Z,1.81
2018-12-01T19:23:28.826Z,1.80
2018-12-01T19:25:58.405Z,1.80
2018-12-01T19:28:27.945Z,1.80
2018-12-01T19:30:57.461Z,1.78
2018-12-01T19:33:26.987Z,1.72
2018-12-01T19:35:56.520Z,1.72
2018-12-01T19:38:28.012Z,1.73
2018-12-01T19:40:58.768Z,1.71
2018-12-01T19:43:28.325Z,1.71
2018-12-01T19:45:57.889Z,1.69
2018-12-01T19:48:27.434Z,1.68
2018-12-01T19:50:57.052Z,1.65
2018-12-01T19:53:26.550Z,1.62
2018-12-01T19:55:56.109Z,1.62
2018-12-01T19:58:27.912Z,1.59
2018-12-01T20:00:58.309Z,1.54
2018-12-01T20:03:30.029Z,1.56
2018-12-01T20:05:59.604Z,1.54
2018-12-01T20:08:29.146Z,1.56
2018-12-01T20:11:02.370Z,1.57
2018-12-01T20:13:37.649Z,1.56
2018-12-01T20:16:22.312Z,1.57
2018-12-01T20:18:52.345Z,1.58
2018-12-01T20:21:22.339Z,1.57
2018-12-01T20:23:51.894Z,1.56
2018-12-01T20:26:21.420Z,1.57
2018-12-01T20:28:51.068Z,1.56
2018-12-01T20:31:20.616Z,1.56
2018-12-01T20:33:51.064Z,1.56
2018-12-01T20:36:23.384Z,1.57
2018-12-01T20:39:33.957Z,1.55
2018-12-01T20:42:03.469Z,1.54
2018-12-01T20:44:33.003Z,1.52
2018-12-01T20:47:02.534Z,1.50
2018-12-01T20:49:32.072Z,1.49
2018-12-01T20:52:01.581Z,1.47
2018-12-01T20:54:37.707Z,1.46
2018-12-01T20:57:17.502Z,1.45
2018-12-01T20:59:47.009Z,1.44
2018-12-01T21:02:16.540Z,1.42
2018-12-01T21:04:46.064Z,1.41
2018-12-01T21:07:15.574Z,1.42
2018-12-01T21:09:45.109Z,1.39
2018-12-01T21:12:15.223Z,1.38
2018-12-01T21:14:44.753Z,1.36
2018-12-01T21:17:14.281Z,1.35
2018-12-01T21:19:43.794Z,1.33
2018-12-01T21:22:13.328Z,1.30
2018-12-01T21:24:42.817Z,1.30
2018-12-01T21:27:12.341Z,1.28
2018-12-01T21:29:41.886Z,1.26
2018-12-01T21:32:11.392Z,1.25
2018-12-01T21:34:40.909Z,1.27
2018-12-01T21:37:10.407Z,1.20
2018-12-01T21:39:39.945Z,1.19
2018-12-01T21:42:09.446Z,1.16
2018-12-01T21:44:38.985Z,1.17
2018-12-01T21:47:09.350Z,1.18
2018-12-01T21:49:38.864Z,1.18
2018-12-01T21:52:08.944Z,1.14
2018-12-01T21:54:38.465Z,1.06
2018-12-01T21:57:07.977Z,1.07
2018-12-01T21:59:37.508Z,1.10
2018-12-01T22:02:07.956Z,1.14
2018-12-01T22:04:37.524Z,1.15
2018-12-01T22:07:07.053Z,1.16
2018-12-01T22:09:36.577Z,1.18
2018-12-01T22:12:06.351Z,1.20
2018-12-01T22:14:35.844Z,1.21
2018-12-01T22:17:05.672Z,1.23
2018-12-01T22:19:35.148Z,1.23
2018-12-01T22:22:04.793Z,1.23
2018-12-01T22:24:34.300Z,1.25
2018-12-01T22:27:03.837Z,1.25
2018-12-01T22:29:33.336Z,1.25
2018-12-01T22:32:02.885Z,1.25
2018-12-01T22:34:32.477Z,1.27
2018-12-01T22:37:02.060Z,1.27
2018-12-01T22:39:31.552Z,1.27
2018-12-01T22:42:01.117Z,1.28
2018-12-01T22:44:30.636Z,1.28
2018-12-01T22:47:00.252Z,1.28
2018-12-01T22:49:29.746Z,1.29
2018-12-01T22:51:59.292Z,1.28
2018-12-01T22:54:28.786Z,1.28
2018-12-01T22:56:58.318Z,1.27
2018-12-01T22:59:27.873Z,1.28
2018-12-01T23:01:57.440Z,1.27
2018-12-01T23:04:26.969Z,1.24
2018-12-01T23:06:56.524Z,1.27
2018-12-01T23:09:26.062Z,1.27
2018-12-01T23:11:56.744Z,1.27
2018-12-01T23:14:25.137Z,1.26
2018-12-01T23:16:54.655Z,1.27
2018-12-01T23:19:24.197Z,1.27
2018-12-01T23:21:53.696Z,1.28
2018-12-01T23:24:23.225Z,1.28
2018-12-01T23:26:52.752Z,1.29
2018-12-01T23:29:22.296Z,1.28
2018-12-01T23:31:51.800Z,1.27
2018-12-01T23:34:21.337Z,1.28
2018-12-01T23:36:50.889Z,1.27
2018-12-01T23:39:20.408Z,1.28
2018-12-01T23:41:49.968Z,1.28
2018-12-01T23:44:33.909Z,1.29
2018-12-01T23:47:03.437Z,1.27
2018-12-01T23:49:32.957Z,1.26
2018-12-01T23:52:02.505Z,1.26
2018-12-01T23:54:32.008Z,1.26
2018-12-01T23:57:01.533Z,1.25
2018-12-01T23:59:31.032Z,1.25
